createdAt,value
2018-12-15T00:01:54.719Z,16.57
2018-12-15T00:04:23.486Z,17.80
2018-12-15T00:06:51.952Z,17.67
2018-12-15T00:09:20.520Z,17.30
2018-12-15T00:11:50.234Z,16.40
2018-12-15T00:14:19.567Z,16.03
2018-12-15T00:16:48.377Z,19.30
2018-12-15T00:19:18.869Z,17.00
2018-12-15T00:21:47.304Z,15.77
2018-12-15T00:24:16.566Z,18.10
2018-12-15T00:26:45.267Z,16.60
2018-12-15T00:29:15.120Z,16.07
2018-12-15T00:31:45.333Z,17.90
2018-12-15T00:34:14.415Z,16.13
2018-12-15T00:36:43.594Z,18.33
2018-12-15T00:39:13.122Z,20.23
2018-12-15T00:41:44.167Z,18.63
2018-12-15T00:44:14.521Z,17.70
2018-12-15T00:46:43.360Z,16.70
2018-12-15T00:49:11.810Z,17.63
2018-12-15T00:51:42.371Z,19.03
2018-12-15T00:54:13.475Z,18.07
2018-12-15T00:56:42.633Z,17.03
2018-12-15T00:59:11.718Z,18.93
2018-12-15T01:01:41.812Z,18.07
2018-12-15T01:04:10.716Z,18.97
2018-12-15T01:06:40.704Z,16.17
2018-12-15T01:09:09.952Z,17.33
2018-12-15T01:11:38.690Z,18.73
2018-12-15T01:14:07.390Z,16.50
2018-12-15T01:16:36.257Z,20.10
2018-12-15T01:19:05.534Z,17.30
2018-12-15T01:21:34.280Z,19.30
2018-12-15T01:24:02.733Z,17.63
2018-12-15T01:26:34.980Z,21.07
2018-12-15T01:29:04.068Z,14.20
2018-12-15T01:31:32.551Z,17.33
2018-12-15T01:34:02.756Z,18.20
2018-12-15T01:36:32.417Z,20.13
2018-12-15T01:39:00.875Z,18.10
2018-12-15T01:41:30.869Z,20.33
2018-12-15T01:44:00.393Z,19.23
2018-12-15T01:46:28.887Z,20.93
2018-12-15T01:48:58.750Z,20.50
2018-12-15T01:51:27.213Z,21.97
2018-12-15T01:53:55.635Z,20.70
2018-12-15T01:56:25.326Z,21.37
2018-12-15T01:58:53.785Z,18.73
2018-12-15T02:01:22.392Z,17.90
2018-12-15T02:03:51.490Z,17.60
2018-12-15T02:06:21.448Z,17.03
2018-12-15T02:08:50.175Z,18.47
2018-12-15T02:11:19.630Z,20.33
2018-12-15T02:13:48.123Z,18.20
2018-12-15T02:16:16.558Z,15.10
2018-12-15T02:18:46.884Z,16.97
2018-12-15T02:21:16.149Z,17.23
2018-12-15T02:23:44.868Z,16.97
2018-12-15T02:26:15.479Z,20.40
2018-12-15T02:28:43.920Z,17.67
2018-12-15T02:31:12.362Z,18.53
2018-12-15T02:33:41.417Z,20.47
2018-12-15T02:36:10.197Z,19.80
2018-12-15T02:38:39.574Z,20.47
2018-12-15T02:41:08.411Z,21.03
2018-12-15T02:43:37.350Z,18.03
2018-12-15T02:46:06.496Z,21.83
2018-12-15T02:48:35.189Z,19.00
2018-12-15T02:51:04.270Z,20.27
2018-12-15T02:53:33.674Z,17.90
2018-12-15T02:56:03.699Z,19.77
2018-12-15T02:58:34.219Z,18.30
2018-12-15T03:01:03.679Z,19.67
2018-12-15T03:03:32.587Z,20.07
2018-12-15T03:06:01.243Z,18.73
2018-12-15T03:08:30.129Z,17.73
2018-12-15T03:10:58.562Z,15.67
2018-12-15T03:13:27.030Z,18.50
2018-12-15T03:15:57.355Z,21.67
2018-12-15T03:18:27.357Z,17.27
2018-12-15T03:21:01.784Z,18.83
2018-12-15T03:23:31.928Z,19.37
2018-12-15T03:26:01.092Z,20.00
2018-12-15T03:28:30.952Z,17.47
2018-12-15T03:30:59.446Z,22.87
2018-12-15T03:33:28.621Z,21.17
2018-12-15T03:35:57.496Z,19.43
2018-12-15T03:38:26.932Z,18.33
2018-12-15T03:40:56.421Z,17.50
2018-12-15T03:46:11.198Z,21.73
2018-12-15T03:48:40.455Z,22.77
2018-12-15T03:51:09.578Z,25.40
2018-12-15T03:53:38.640Z,21.07
2018-12-15T03:56:07.306Z,20.93
2018-12-15T03:58:37.251Z,19.13
2018-12-15T04:01:06.256Z,21.37
2018-12-15T04:03:34.742Z,19.43
2018-12-15T04:06:04.645Z,22.73
2018-12-15T04:08:34.310Z,21.73
2018-12-15T04:11:02.769Z,21.00
2018-12-15T04:13:31.541Z,20.07
2018-12-15T04:16:00.700Z,24.37
2018-12-15T04:18:30.008Z,18.70
2018-12-15T04:20:59.464Z,19.87
2018-12-15T04:23:28.481Z,22.77
2018-12-15T04:25:57.712Z,21.33
2018-12-15T04:28:26.750Z,16.80
2018-12-15T04:30:57.567Z,18.73
2018-12-15T04:33:25.997Z,22.27
2018-12-15T04:35:54.432Z,22.33
2018-12-15T04:38:24.710Z,24.17
2018-12-15T04:40:53.181Z,22.47
2018-12-15T04:43:23.394Z,20.33
2018-12-15T04:45:54.202Z,19.33
2018-12-15T04:48:23.063Z,21.00
2018-12-15T04:50:53.803Z,20.87
2018-12-15T04:53:23.154Z,24.13
2018-12-15T04:55:52.483Z,21.77
2018-12-15T04:58:20.907Z,21.57
2018-12-15T05:00:50.664Z,23.30
2018-12-15T05:03:22.888Z,22.83
2018-12-15T05:05:53.405Z,23.50
2018-12-15T05:08:21.871Z,22.17
2018-12-15T05:10:51.150Z,23.40
2018-12-15T05:13:20.268Z,21.30
2018-12-15T05:15:49.272Z,22.27
2018-12-15T05:18:19.144Z,23.30
2018-12-15T05:20:48.483Z,22.23
2018-12-15T05:23:17.354Z,19.40
2018-12-15T05:25:47.417Z,20.10
2018-12-15T05:28:15.828Z,20.03
2018-12-15T05:30:44.274Z,18.40
2018-12-15T05:33:12.691Z,16.27
2018-12-15T05:35:41.135Z,18.17
2018-12-15T05:38:11.149Z,18.07
2018-12-15T05:40:40.718Z,16.77
2018-12-15T05:43:10.175Z,17.47
2018-12-15T05:45:40.142Z,19.00
2018-12-15T05:48:10.106Z,17.87
2018-12-15T05:50:38.538Z,18.77
2018-12-15T05:53:07.003Z,19.33
2018-12-15T05:55:35.475Z,18.77
2018-12-15T05:58:04.909Z,20.53
2018-12-15T06:00:33.564Z,23.43
2018-12-15T06:03:03.015Z,19.80
2018-12-15T06:05:33.094Z,20.60
2018-12-15T06:08:01.538Z,21.50
2018-12-15T06:10:31.355Z,21.87
2018-12-15T06:13:01.347Z,21.77
2018-12-15T06:15:30.895Z,20.03
2018-12-15T06:18:00.711Z,18.27
2018-12-15T06:20:29.884Z,17.47
2018-12-15T06:22:58.362Z,16.47
2018-12-15T06:25:27.237Z,19.57
2018-12-15T06:27:56.347Z,18.60
2018-12-15T06:30:24.805Z,20.00
2018-12-15T06:32:53.286Z,17.93
2018-12-15T06:35:22.685Z,19.63
2018-12-15T06:37:51.881Z,23.50
2018-12-15T06:40:20.717Z,19.07
2018-12-15T06:42:49.535Z,22.00
2018-12-15T06:45:19.381Z,22.00
2018-12-15T06:47:48.803Z,18.10
2018-12-15T06:50:17.800Z,16.87
2018-12-15T06:52:50.346Z,19.73
2018-12-15T06:55:20.429Z,20.77
2018-12-15T06:57:52.576Z,20.03
2018-12-15T07:00:26.938Z,19.40
2018-12-15T07:03:08.101Z,22.77
2018-12-15T07:05:45.743Z,19.47
2018-12-15T07:08:27.814Z,20.13
2018-12-15T07:11:00.696Z,18.30
2018-12-15T07:13:30.841Z,20.30
2018-12-15T07:16:05.886Z,19.80
2018-12-15T07:18:46.490Z,21.17
2018-12-15T07:21:15.925Z,20.87
2018-12-15T07:23:45.538Z,19.40
2018-12-15T07:26:19.022Z,21.13
2018-12-15T07:28:57.377Z,22.70
2018-12-15T07:31:31.702Z,24.43
2018-12-15T07:34:05.372Z,23.80
2018-12-15T07:39:16.330Z,21.83
2018-12-15T07:41:53.565Z,24.10
2018-12-15T07:44:27.238Z,25.80
2018-12-15T07:46:57.248Z,20.33
2018-12-15T07:49:26.762Z,23.43
2018-12-15T07:51:58.538Z,23.33
2018-12-15T07:54:31.013Z,22.97
2018-12-15T07:57:00.469Z,23.50
2018-12-15T07:59:34.134Z,21.70
2018-12-15T08:02:12.978Z,21.23
2018-12-15T08:04:46.850Z,18.70
2018-12-15T08:07:21.591Z,20.57
2018-12-15T08:09:59.891Z,21.30
2018-12-15T08:12:39.917Z,22.43
2018-12-15T08:15:12.570Z,19.93
2018-12-15T08:17:41.913Z,21.33
2018-12-15T08:20:11.288Z,18.47
2018-12-15T08:22:40.554Z,17.63
2018-12-15T08:25:10.792Z,21.57
2018-12-15T08:27:40.869Z,16.03
2018-12-15T08:30:23.452Z,20.77
2018-12-15T08:32:52.759Z,19.20
2018-12-15T08:35:29.696Z,21.37
2018-12-15T08:38:10.139Z,18.13
2018-12-15T08:41:02.102Z,17.47
2018-12-15T08:43:45.414Z,19.77
2018-12-15T08:46:18.795Z,19.17
2018-12-15T08:48:56.637Z,19.70
2018-12-15T08:51:32.628Z,20.07
2018-12-15T08:54:07.834Z,22.17
2018-12-15T08:56:39.827Z,23.67
2018-12-15T08:59:20.303Z,20.40
2018-12-15T09:01:55.279Z,19.13
2018-12-15T09:04:29.869Z,21.50
2018-12-15T09:07:03.754Z,24.30
2018-12-15T09:09:32.360Z,21.73
2018-12-15T09:12:00.801Z,19.93
2018-12-15T09:14:33.254Z,23.97
2018-12-15T09:17:02.654Z,22.77
2018-12-15T09:19:31.097Z,24.20
2018-12-15T09:21:59.914Z,33.43
2018-12-15T09:24:28.845Z,20.87
2018-12-15T09:26:58.847Z,22.93
2018-12-15T09:29:27.704Z,27.70
2018-12-15T09:31:58.073Z,25.53
2018-12-15T09:34:29.191Z,24.80
2018-12-15T09:36:59.396Z,34.20
2018-12-15T09:39:29.584Z,24.53
2018-12-15T09:42:00.345Z,25.40
2018-12-15T09:44:29.918Z,29.43
2018-12-15T09:47:02.482Z,24.97
2018-12-15T09:49:37.191Z,24.93
2018-12-15T09:52:10.205Z,20.90
2018-12-15T09:54:39.686Z,19.20
2018-12-15T09:57:10.884Z,23.80
2018-12-15T09:59:42.431Z,23.20
2018-12-15T10:02:11.622Z,30.70
2018-12-15T10:04:40.429Z,23.57
2018-12-15T10:07:09.165Z,23.67
2018-12-15T10:09:38.857Z,18.93
2018-12-15T10:12:09.017Z,18.67
2018-12-15T10:14:41.839Z,24.13
2018-12-15T10:17:14.604Z,22.50
2018-12-15T10:19:43.989Z,19.53
2018-12-15T10:22:13.186Z,20.80
2018-12-15T10:24:41.980Z,19.17
2018-12-15T10:27:10.447Z,20.10
2018-12-15T10:29:44.281Z,17.67
2018-12-15T10:32:17.810Z,23.63
2018-12-15T10:34:46.260Z,19.30
2018-12-15T10:37:15.973Z,22.20
2018-12-15T10:39:45.393Z,23.03
2018-12-15T10:42:24.840Z,25.97
2018-12-15T10:44:54.315Z,24.60
2018-12-15T10:47:28.707Z,24.37
2018-12-15T10:49:58.883Z,49.90
2018-12-15T10:52:31.203Z,34.40
2018-12-15T10:54:59.663Z,27.43
2018-12-15T10:57:28.195Z,18.40
2018-12-15T10:59:57.568Z,20.27
2018-12-15T11:02:26.802Z,21.20
2018-12-15T11:04:55.267Z,19.43
2018-12-15T11:07:23.721Z,21.13
2018-12-15T11:09:52.822Z,22.00
2018-12-15T11:12:21.729Z,19.03
2018-12-15T11:14:50.896Z,19.80
2018-12-15T11:17:22.927Z,19.67
2018-12-15T11:19:51.393Z,17.07
2018-12-15T11:22:20.090Z,20.77
2018-12-15T11:24:49.596Z,20.50
2018-12-15T11:27:18.726Z,19.97
2018-12-15T11:29:47.180Z,20.87
2018-12-15T11:32:16.343Z,21.87
2018-12-15T11:34:45.024Z,23.30
2018-12-15T11:37:14.328Z,21.60
2018-12-15T11:39:42.811Z,24.87
2018-12-15T11:42:11.632Z,24.10
2018-12-15T11:44:40.129Z,23.10
2018-12-15T11:47:08.948Z,23.10
2018-12-15T11:49:43.507Z,22.27
2018-12-15T11:52:08.165Z,21.20
2018-12-15T11:54:36.845Z,26.70
2018-12-15T11:57:05.272Z,20.23
2018-12-15T11:59:34.062Z,20.03
2018-12-15T12:02:02.713Z,19.47
2018-12-15T12:04:31.200Z,19.23
2018-12-15T12:06:59.674Z,22.03
2018-12-15T12:09:28.369Z,22.23
2018-12-15T12:11:57.362Z,22.83
2018-12-15T12:14:25.824Z,20.50
2018-12-15T12:16:54.269Z,20.77
2018-12-15T12:19:23.737Z,17.60
2018-12-15T12:21:52.884Z,19.67
2018-12-15T12:24:21.313Z,21.90
2018-12-15T12:26:49.795Z,18.30
2018-12-15T12:29:18.809Z,23.93
2018-12-15T12:31:47.251Z,16.10
2018-12-15T12:34:16.079Z,17.47
2018-12-15T12:36:44.958Z,19.07
2018-12-15T12:39:14.266Z,19.77
2018-12-15T12:41:42.715Z,19.20
2018-12-15T12:44:12.078Z,19.57
2018-12-15T12:46:40.743Z,19.27
2018-12-15T12:49:09.206Z,18.07
2018-12-15T12:51:38.704Z,17.33
2018-12-15T12:54:07.168Z,15.67
2018-12-15T12:56:35.655Z,16.67
2018-12-15T12:59:04.528Z,17.17
2018-12-15T13:01:39.258Z,18.40
2018-12-15T13:04:07.752Z,14.27
2018-12-15T13:06:38.647Z,12.90
2018-12-15T13:09:20.383Z,15.13
2018-12-15T13:11:52.533Z,16.33
2018-12-15T13:14:21.064Z,17.60
2018-12-15T13:16:50.032Z,16.20
2018-12-15T13:19:18.807Z,18.07
2018-12-15T13:21:51.515Z,16.20
2018-12-15T13:24:19.974Z,14.73
2018-12-15T13:26:50.019Z,14.93
2018-12-15T13:29:23.312Z,17.57
2018-12-15T13:31:53.712Z,15.63
2018-12-15T13:34:25.120Z,15.30
2018-12-15T13:36:54.635Z,14.83
2018-12-15T13:39:23.119Z,15.37
2018-12-15T13:41:51.635Z,15.63
2018-12-15T13:44:20.499Z,17.33
2018-12-15T13:46:49.437Z,15.97
2018-12-15T13:49:18.277Z,16.23
2018-12-15T13:51:46.761Z,16.73
2018-12-15T13:54:18.289Z,17.83
2018-12-15T13:56:47.260Z,17.20
2018-12-15T13:59:23.975Z,17.17
2018-12-15T14:01:54.536Z,23.60
2018-12-15T14:04:26.669Z,14.73
2018-12-15T14:06:59.353Z,19.47
2018-12-15T14:09:28.804Z,18.10
2018-12-15T14:12:00.154Z,18.30
2018-12-15T14:14:30.592Z,19.60
2018-12-15T14:17:13.071Z,18.73
2018-12-15T14:19:49.508Z,15.50
2018-12-15T14:22:18.598Z,15.23
2018-12-15T14:24:48.521Z,15.37
2018-12-15T14:27:19.741Z,18.13
2018-12-15T14:29:50.367Z,18.70
2018-12-15T14:32:20.266Z,20.60
2018-12-15T14:34:54.610Z,15.27
2018-12-15T14:37:23.950Z,16.67
2018-12-15T14:39:59.429Z,16.13
2018-12-15T14:43:00.443Z,17.27
2018-12-15T14:45:31.797Z,14.13
2018-12-15T14:48:08.859Z,15.00
2018-12-15T14:50:37.954Z,17.20
2018-12-15T14:53:08.812Z,15.63
2018-12-15T14:55:38.746Z,18.60
2018-12-15T14:58:09.871Z,14.27
2018-12-15T15:00:38.541Z,16.43
2018-12-15T15:03:08.170Z,15.30
2018-12-15T15:05:37.533Z,12.07
2018-12-15T15:08:08.626Z,17.07
2018-12-15T15:10:37.805Z,16.20
2018-12-15T15:13:06.411Z,19.90
2018-12-15T15:15:35.532Z,15.60
2018-12-15T15:18:17.922Z,16.03
2018-12-15T15:20:48.587Z,15.37
2018-12-15T15:23:19.057Z,11.83
2018-12-15T15:25:48.089Z,16.13
2018-12-15T15:28:17.255Z,15.90
2018-12-15T15:30:46.072Z,14.37
2018-12-15T15:33:14.514Z,12.80
2018-12-15T15:35:42.970Z,15.83
2018-12-15T15:38:11.447Z,14.97
2018-12-15T15:40:39.924Z,15.77
2018-12-15T15:43:09.742Z,17.47
2018-12-15T15:45:42.132Z,15.53
2018-12-15T15:48:13.448Z,14.53
2018-12-15T15:50:46.819Z,16.17
2018-12-15T15:53:24.967Z,14.63
2018-12-15T15:55:57.870Z,13.57
2018-12-15T15:58:32.254Z,18.33
2018-12-15T16:01:03.775Z,18.13
2018-12-15T16:03:36.029Z,16.43
2018-12-15T16:06:07.355Z,16.93
2018-12-15T16:08:37.963Z,17.57
2018-12-15T16:11:09.523Z,18.73
2018-12-15T16:13:40.698Z,20.43
2018-12-15T16:16:42.156Z,18.23
2018-12-15T16:19:13.396Z,16.87
2018-12-15T16:21:50.482Z,15.50
2018-12-15T16:24:21.347Z,17.03
2018-12-15T16:26:57.227Z,17.63
2018-12-15T16:29:29.455Z,16.40
2018-12-15T16:32:00.417Z,16.00
2018-12-15T16:34:32.013Z,16.23
2018-12-15T16:37:03.134Z,13.47
2018-12-15T16:39:33.665Z,14.03
2018-12-15T16:42:05.736Z,13.63
2018-12-15T16:44:37.735Z,14.43
2018-12-15T16:47:06.305Z,12.97
2018-12-15T16:49:35.010Z,16.20
2018-12-15T16:52:03.544Z,14.10
2018-12-15T16:54:31.990Z,13.07
2018-12-15T16:57:00.869Z,15.63
2018-12-15T16:59:29.407Z,12.50
2018-12-15T17:01:59.103Z,12.90
2018-12-15T17:04:27.561Z,17.47
2018-12-15T17:06:56.004Z,14.73
2018-12-15T17:09:24.470Z,14.53
2018-12-15T17:11:53.925Z,17.03
2018-12-15T17:14:22.563Z,14.63
2018-12-15T17:16:51.471Z,19.07
2018-12-15T17:19:20.396Z,15.27
2018-12-15T17:21:49.687Z,16.83
2018-12-15T17:24:18.220Z,14.20
2018-12-15T17:26:46.892Z,14.83
2018-12-15T17:29:16.579Z,14.20
2018-12-15T17:31:45.574Z,13.37
2018-12-15T17:34:14.196Z,13.33
2018-12-15T17:36:43.056Z,15.07
2018-12-15T17:39:11.788Z,15.17
2018-12-15T17:41:40.222Z,15.40
2018-12-15T17:44:10.861Z,15.40
2018-12-15T17:46:45.541Z,15.23
2018-12-15T17:49:19.468Z,14.10
2018-12-15T17:51:53.769Z,13.83
2018-12-15T17:54:25.018Z,13.77
2018-12-15T17:56:58.192Z,14.60
2018-12-15T17:59:27.988Z,13.70
2018-12-15T18:01:58.066Z,12.33
2018-12-15T18:04:26.756Z,13.10
2018-12-15T18:07:01.548Z,13.30
2018-12-15T18:09:30.617Z,14.67
2018-12-15T18:12:02.045Z,16.40
2018-12-15T18:14:31.186Z,14.97
2018-12-15T18:17:00.727Z,13.50
2018-12-15T18:19:30.296Z,12.87
2018-12-15T18:22:00.388Z,14.40
2018-12-15T18:24:29.531Z,17.50
2018-12-15T18:27:03.817Z,12.83
2018-12-15T18:29:34.356Z,14.80
2018-12-15T18:32:04.166Z,10.70
2018-12-15T18:34:32.751Z,12.23
2018-12-15T18:37:01.552Z,13.13
2018-12-15T18:39:31.299Z,14.53
2018-12-15T18:42:00.126Z,14.10
2018-12-15T18:44:28.629Z,13.40
2018-12-15T18:46:58.145Z,14.33
2018-12-15T18:49:39.570Z,13.43
2018-12-15T18:52:13.055Z,16.10
2018-12-15T18:54:43.347Z,12.27
2018-12-15T18:57:12.737Z,12.93
2018-12-15T18:59:42.206Z,13.93
2018-12-15T19:02:11.969Z,13.03
2018-12-15T19:04:41.346Z,12.63
2018-12-15T19:07:10.059Z,14.77
2018-12-15T19:09:39.851Z,14.33
2018-12-15T19:12:08.448Z,14.33
2018-12-15T19:14:37.022Z,12.77
2018-12-15T19:17:06.044Z,14.27
2018-12-15T19:19:34.986Z,14.90
2018-12-15T19:22:05.859Z,15.60
2018-12-15T19:24:34.563Z,13.73
2018-12-15T19:27:05.936Z,13.63
2018-12-15T19:29:36.514Z,14.83
2018-12-15T19:32:05.947Z,14.73
2018-12-15T19:34:36.176Z,13.50
2018-12-15T19:37:05.624Z,13.77
2018-12-15T19:39:35.246Z,15.07
2018-12-15T19:42:03.844Z,13.87
2018-12-15T19:44:34.664Z,21.20
2018-12-15T19:47:04.049Z,19.70
2018-12-15T19:49:35.313Z,18.90
2018-12-15T19:52:06.168Z,15.10
2018-12-15T19:54:35.914Z,18.50
2018-12-15T19:57:10.094Z,14.20
2018-12-15T19:59:39.801Z,14.80
2018-12-15T20:02:08.728Z,16.47
2018-12-15T20:04:41.064Z,13.93
2018-12-15T20:07:09.901Z,16.00
2018-12-15T20:09:39.007Z,13.67
2018-12-15T20:12:08.533Z,13.93
2018-12-15T20:14:38.080Z,12.77
2018-12-15T20:17:07.939Z,15.27
2018-12-15T20:19:36.771Z,15.17
2018-12-15T20:22:05.415Z,18.50
2018-12-15T20:24:47.579Z,16.53
2018-12-15T20:27:18.462Z,15.67
2018-12-15T20:29:48.773Z,15.03
2018-12-15T20:32:20.118Z,13.70
2018-12-15T20:34:52.077Z,14.53
2018-12-15T20:37:23.849Z,14.70
2018-12-15T20:39:56.577Z,15.63
2018-12-15T20:42:29.136Z,15.93
2018-12-15T20:44:58.017Z,19.73
2018-12-15T20:47:27.999Z,15.63
2018-12-15T20:50:04.901Z,17.27
2018-12-15T20:52:34.427Z,19.00
2018-12-15T20:55:05.009Z,19.40
2018-12-15T20:57:36.611Z,15.63
2018-12-15T21:00:08.975Z,16.27
2018-12-15T21:02:43.670Z,15.67
2018-12-15T21:05:19.873Z,13.30
2018-12-15T21:07:49.542Z,16.00
2018-12-15T21:10:19.258Z,16.67
2018-12-15T21:12:51.547Z,16.57
2018-12-15T21:15:25.055Z,15.00
2018-12-15T21:17:57.202Z,14.93
2018-12-15T21:20:26.458Z,15.77
2018-12-15T21:22:55.538Z,15.87
2018-12-15T21:25:25.476Z,15.97
2018-12-15T21:27:55.095Z,17.93
2018-12-15T21:30:24.615Z,16.00
2018-12-15T21:32:54.358Z,16.23
2018-12-15T21:35:22.833Z,16.33
2018-12-15T21:37:58.550Z,16.33
2018-12-15T21:40:27.278Z,16.67
2018-12-15T21:42:55.766Z,14.47
2018-12-15T21:45:24.890Z,18.43
2018-12-15T21:47:57.586Z,19.13
2018-12-15T21:50:24.241Z,17.47
2018-12-15T21:52:52.725Z,17.77
2018-12-15T21:55:21.158Z,18.33
2018-12-15T21:57:49.603Z,16.17
2018-12-15T22:00:18.675Z,15.90
2018-12-15T22:02:48.635Z,15.03
2018-12-15T22:05:18.297Z,12.70
2018-12-15T22:07:48.005Z,17.20
2018-12-15T22:10:16.491Z,14.23
2018-12-15T22:12:45.692Z,16.30
2018-12-15T22:15:15.687Z,16.00
2018-12-15T22:17:45.081Z,16.37
2018-12-15T22:20:14.297Z,19.90
2018-12-15T22:22:43.629Z,15.50
2018-12-15T22:25:12.981Z,19.93
2018-12-15T22:27:41.439Z,21.50
2018-12-15T22:30:11.396Z,20.93
2018-12-15T22:32:40.703Z,20.40
2018-12-15T22:35:09.588Z,22.07
2018-12-15T22:37:38.798Z,23.10
2018-12-15T22:40:08.886Z,21.50
2018-12-15T22:42:38.242Z,21.03
2018-12-15T22:45:07.323Z,19.23
2018-12-15T22:47:35.770Z,20.13
2018-12-15T22:50:06.543Z,21.23
2018-12-15T22:52:35.594Z,21.83
2018-12-15T22:55:05.200Z,21.97
2018-12-15T22:57:33.629Z,21.77
2018-12-15T23:00:02.443Z,22.40
2018-12-15T23:02:32.072Z,19.27
2018-12-15T23:05:00.662Z,19.70
2018-12-15T23:07:30.149Z,20.77
2018-12-15T23:09:59.200Z,23.50
2018-12-15T23:12:28.824Z,17.97
2018-12-15T23:14:57.290Z,20.57
2018-12-15T23:17:25.739Z,16.07
2018-12-15T23:19:54.621Z,18.37
2018-12-15T23:22:23.078Z,17.03
2018-12-15T23:24:51.558Z,17.17
2018-12-15T23:27:20.461Z,16.30
2018-12-15T23:29:48.966Z,18.93
2018-12-15T23:32:19.643Z,16.50
2018-12-15T23:34:48.104Z,15.43
2018-12-15T23:37:16.903Z,19.17
2018-12-15T23:39:45.604Z,19.17
2018-12-15T23:42:14.978Z,18.70
2018-12-15T23:44:43.533Z,16.87
2018-12-15T23:47:11.964Z,16.60
2018-12-15T23:49:41.338Z,16.63
2018-12-15T23:52:10.441Z,19.47
2018-12-15T23:54:39.262Z,18.10
2018-12-15T23:57:09.744Z,18.00
2018-12-15T23:59:38.174Z,19.10
